Bei Facebook empfehlenBei Twitter postenGoogle plusPinterest

Das Wetter im Erzgebirge am 25.05.2015

Wetter und Klima am 25.05.2015 Holzhau im Erzgebirge (630m ü.NN)
Letzte gemessene Temperatur und Uhrzeit der Messung23:45:00 Uhr10.50 °C
Temperatur (Maximum / Höchstwert) und Uhrzeit der Messung15:00:00 Uhr18.40 °C
Temperatur (Minimum / Tiefstwert) und Uhrzeit der Messung03:30:004.70 °C
Errechneter Absolutwert der Temperaturschwankungen zwischen Tmin und Tmax des Tages13.70 K
Errechnete Tagesmitteltemperatur12.20625 °C
Gesamt - Niederschlag des Tages (in flüssiger Form)0.00 Liter / m²
Luftdruck (Maximum / Höchstwert) und Zeitpunkt der Messung00:15:00 Uhr1015.80 hPa
Luftdruck (Minimum / Tiefstwert) und Zeitpunkt der Messung18:15:00 Uhr1009.90 hPa
Errechneter Absolutwert der Luftdruckschwankungen des Tages5.90 hPa
Höchste gemessene Windgeschwindigkeit und Uhrzeit der Messung16:15:00 Uhr10.80 km/h
Errechnete Windhäufigkeit in Relation zu den Messwerten des Tages10.41667 %
Niedrigste Windkühle (Windchill) und Zeitpunkt der Messung03:30:00 Uhr4.70 °C
Taupunkt (Maximum / Höchstwert) und Uhrzeit der Messung08:15:00 Uhr11.90 °C
Taupunkt (Minimum / Tiefstwert) und Uhrzeit der Messung03:00:003.10 °C
Anzahl der automatisch eingelesenen Messwerte 96

Detaillierte Wetter- und Klima- Messwerte für den 25.05.2015 in Holzhau im Erzgebirge (630m ü.NN)
ZeitTemperaturLuftdruckRel. LuftfeuchteWindWindrichtungWindchillTaupunktNiederschlag l/m²
23:45:0010.50 °C1010.50 hPa84.00 %7.90 °C 
23:30:0010.70 °C1010.60 hPa82.00 %7.80 °C 
23:15:0010.80 °C1010.70 hPa82.00 %7.90 °C 
23:00:0010.90 °C1010.80 hPa82.00 %8.00 °C 
22:45:0011.00 °C1010.80 hPa82.00 %8.00 °C 
22:30:0011.20 °C1010.70 hPa82.00 %8.20 °C 
22:15:0011.40 °C1010.60 hPa82.00 %8.40 °C 
22:00:0011.60 °C1010.80 hPa81.00 %8.50 °C 
21:45:0011.90 °C1010.50 hPa80.00 %8.60 °C 
21:30:0011.90 °C1010.40 hPa80.00 %8.60 °C 
21:15:0012.10 °C1010.40 hPa78.00 %8.40 °C 
21:00:0012.40 °C1010.40 hPa76.00 %8.30 °C 
20:45:0012.80 °C1010.20 hPa75.00 %8.50 °C 
20:30:0013.10 °C1010.20 hPa74.00 %8.60 °C 
20:15:0013.50 °C1010.10 hPa73.00 %8.80 °C 
20:00:0014.10 °C1010.20 hPa71.00 %8.90 °C 
19:45:0014.60 °C1010.20 hPa68.00 %8.80 °C 
19:30:0015.30 °C1010.20 hPa66.00 %9.00 °C 
19:15:0015.90 °C1010.00 hPa65.00 %9.30 °C 
19:00:0016.10 °C1010.00 hPa67.00 %10.00 °C 
18:45:0016.30 °C1010.00 hPa66.00 %9.90 °C 
18:30:0017.00 °C1010.10 hPa64.00 %10.10 °C 
18:15:0016.70 °C1009.90 hPa65.00 %10.10 °C 
18:00:0016.10 °C1010.00 hPa66.00 %9.80 °C 
17:45:0015.90 °C1010.10 hPa66.00 %9.60 °C 
17:30:0016.10 °C1010.20 hPa67.00 %10.00 °C 
17:15:0016.40 °C1010.50 hPa67.00 %10.30 °C 
17:00:0016.50 °C1010.50 hPa65.00 %5.40 km/hWNW17.10 °C9.90 °C 
16:45:0016.80 °C1010.60 hPa65.00 %4.68 km/hWNW16.80 °C10.20 °C 
16:30:0016.90 °C1010.60 hPa64.00 %4.68 km/hWNW16.90 °C10.10 °C 
16:15:0017.10 °C1010.80 hPa64.00 %10.80 km/hNW17.00 °C10.20 °C 
16:00:0017.50 °C1010.80 hPa64.00 %10.60 °C 
15:45:0017.60 °C1010.80 hPa64.00 %3.60 km/hW17.60 °C10.70 °C 
15:30:0017.80 °C1011.00 hPa65.00 %6.48 km/hWNW18.40 °C11.10 °C 
15:15:0018.10 °C1011.20 hPa63.00 %6.84 km/hWNW18.70 °C11.00 °C 
15:00:0018.40 °C1011.20 hPa63.00 %5.76 km/hNW19.20 °C11.20 °C 
14:45:0018.30 °C1011.10 hPa64.00 %2.88 km/hNNW18.30 °C11.40 °C 
14:30:0017.90 °C1011.40 hPa65.00 %11.20 °C 
14:15:0017.80 °C1011.30 hPa66.00 %11.40 °C 
14:00:0016.60 °C1011.40 hPa72.00 %11.50 °C 
13:45:0016.30 °C1011.80 hPa72.00 %11.20 °C 
13:30:0016.50 °C1011.70 hPa71.00 %11.20 °C 
13:15:0016.60 °C1011.70 hPa73.00 %11.70 °C 
13:00:0016.40 °C1011.80 hPa74.00 %11.80 °C 
12:45:0015.70 °C1012.00 hPa76.00 %11.50 °C 
12:30:0015.60 °C1012.20 hPa77.00 %11.60 °C 
12:15:0015.30 °C1012.20 hPa78.00 %11.50 °C 
12:00:0014.80 °C1012.20 hPa79.00 %11.20 °C 
11:45:0013.90 °C1012.30 hPa81.00 %10.70 °C 
11:30:0013.10 °C1012.30 hPa80.00 %9.70 °C 
11:15:0012.80 °C1012.60 hPa79.00 %9.30 °C 
11:00:0013.10 °C1012.80 hPa75.00 %8.80 °C 
10:45:0014.10 °C1012.80 hPa71.00 %3.96 km/hSW14.10 °C8.90 °C 
10:30:0015.50 °C1012.80 hPa67.00 %9.40 °C 
10:15:0017.30 °C1012.60 hPa63.00 %10.20 °C 
10:00:0017.90 °C1012.70 hPa64.00 %11.00 °C 
09:45:0017.60 °C1012.70 hPa63.00 %10.50 °C 
09:30:0017.90 °C1012.80 hPa64.00 %11.00 °C 
09:15:0017.20 °C1012.80 hPa65.00 %10.60 °C 
09:00:0017.20 °C1012.80 hPa66.00 %10.80 °C 
08:45:0017.30 °C1013.00 hPa67.00 %11.10 °C 
08:30:0016.70 °C1012.90 hPa71.00 %11.40 °C 
08:15:0014.90 °C1013.00 hPa82.00 %11.90 °C 
08:00:0012.30 °C1013.10 hPa86.00 %10.00 °C 
07:45:0011.40 °C1013.10 hPa87.00 %9.30 °C 
07:30:0010.50 °C1013.10 hPa89.00 %8.80 °C 
07:15:009.80 °C1013.10 hPa90.00 %8.20 °C 
07:00:008.60 °C1013.20 hPa91.00 %7.20 °C 
06:45:007.80 °C1013.40 hPa91.00 %6.40 °C 
06:30:007.30 °C1013.60 hPa92.00 %6.10 °C 
06:15:006.60 °C1013.60 hPa92.00 %5.40 °C 
06:00:006.10 °C1013.60 hPa91.00 %4.70 °C 
05:45:005.80 °C1013.70 hPa91.00 %4.40 °C 
05:30:005.80 °C1013.80 hPa91.00 %4.40 °C 
05:15:005.60 °C1013.90 hPa91.00 %4.20 °C 
05:00:005.10 °C1013.90 hPa91.00 %3.80 °C 
04:45:005.10 °C1014.20 hPa91.00 %3.80 °C 
04:30:005.20 °C1014.30 hPa91.00 %3.90 °C 
04:15:005.10 °C1014.20 hPa90.00 %3.60 °C 
04:00:004.90 °C1014.20 hPa90.00 %3.40 °C 
03:45:004.90 °C1014.30 hPa90.00 %3.40 °C 
03:30:004.70 °C1014.40 hPa90.00 %3.20 °C 
03:15:004.70 °C1014.40 hPa90.00 %3.20 °C 
03:00:004.80 °C1014.40 hPa89.00 %3.10 °C 
02:45:005.00 °C1014.60 hPa89.00 %3.30 °C 
02:30:005.30 °C1014.60 hPa89.00 %3.60 °C 
02:15:005.60 °C1014.50 hPa89.00 %3.90 °C 
02:00:005.60 °C1014.50 hPa89.00 %3.90 °C 
01:45:005.70 °C1014.90 hPa89.00 %4.00 °C 
01:30:005.80 °C1015.10 hPa88.00 %4.00 °C 
01:15:006.10 °C1015.10 hPa88.00 %4.30 °C 
01:00:006.40 °C1015.40 hPa88.00 %4.60 °C 
00:45:006.80 °C1015.30 hPa88.00 %5.00 °C 
00:30:006.60 °C1015.50 hPa88.00 %4.80 °C 
00:15:006.60 °C1015.80 hPa87.00 %4.60 °C 
00:00:006.90 °C1015.70 hPa87.00 %4.90 °C 

Permanenter Link zu dieser Seite: Wetter im Erzgebirge am 25.05.2015
Performance-Info: Die Erstellung der Seite / Statistik(en) / Tabelle(n) erforderte 5 Datenbankserver-Abfrage(n) und dauerte 99 Millisekunden. (Dieser Messwert ist von der Gesamt-Auslastung des Servers abhängig.)
Erzgebirge - Wetter | Erzgebirge - Wetter (Mobilgeräte) | Komplette Klimadatenbank